createdAt,value
2019-05-19T00:03:16.323Z,77.70
2019-05-19T00:07:22.036Z,78.40
2019-05-19T00:11:27.700Z,77.30
2019-05-19T00:15:33.385Z,76.00
2019-05-19T00:19:39.079Z,75.70
2019-05-19T00:23:44.774Z,75.50
2019-05-19T00:27:50.650Z,75.00
2019-05-19T00:31:56.367Z,75.00
2019-05-19T00:36:02.160Z,75.60
2019-05-19T00:40:09.035Z,75.40
2019-05-19T00:44:14.780Z,75.20
2019-05-19T00:48:21.522Z,75.00
2019-05-19T00:52:27.205Z,74.90
2019-05-19T00:56:33.506Z,75.60
2019-05-19T01:00:39.360Z,75.90
2019-05-19T01:04:45.049Z,75.70
2019-05-19T01:08:50.788Z,77.00
2019-05-19T01:12:56.472Z,77.60
2019-05-19T01:17:03.171Z,76.90
2019-05-19T01:21:08.837Z,75.60
2019-05-19T01:25:16.432Z,75.80
2019-05-19T01:29:22.119Z,75.60
2019-05-19T01:33:27.867Z,75.60
2019-05-19T01:37:33.764Z,76.10
2019-05-19T01:41:39.495Z,76.40
2019-05-19T01:45:45.166Z,76.40
2019-05-19T01:49:50.880Z,76.10
2019-05-19T01:53:56.582Z,76.70
2019-05-19T01:58:02.265Z,76.90
2019-05-19T02:02:07.934Z,77.70
2019-05-19T02:06:13.630Z,77.80
2019-05-19T02:10:20.021Z,77.10
2019-05-19T02:14:25.684Z,77.10
2019-05-19T02:18:31.367Z,76.80
2019-05-19T02:22:37.042Z,77.00
2019-05-19T02:26:42.801Z,77.20
2019-05-19T02:30:48.489Z,76.90
2019-05-19T02:34:54.239Z,77.70
2019-05-19T02:38:59.909Z,77.70
2019-05-19T02:43:06.207Z,78.00
2019-05-19T02:47:14.599Z,79.10
2019-05-19T02:51:22.674Z,79.80
2019-05-19T02:55:29.078Z,80.80
2019-05-19T02:59:36.126Z,80.70
2019-05-19T03:03:41.831Z,80.10
2019-05-19T03:07:48.442Z,80.40
2019-05-19T03:11:54.137Z,80.90
2019-05-19T03:15:59.796Z,79.40
2019-05-19T03:20:07.898Z,79.70
2019-05-19T03:24:13.652Z,80.10
2019-05-19T03:28:19.336Z,80.20
2019-05-19T03:32:32.575Z,79.40
2019-05-19T03:36:38.630Z,79.40
2019-05-19T03:40:44.371Z,78.80
2019-05-19T03:44:50.051Z,78.20
2019-05-19T03:48:55.989Z,78.50
2019-05-19T03:53:01.666Z,79.00
2019-05-19T03:57:07.376Z,81.40
2019-05-19T04:01:13.054Z,79.80
2019-05-19T04:05:18.924Z,79.10
2019-05-19T04:09:24.596Z,79.70
2019-05-19T04:13:30.295Z,80.20
2019-05-19T04:17:35.969Z,81.20
2019-05-19T04:21:48.740Z,80.50
2019-05-19T04:25:49.051Z,79.60
2019-05-19T04:29:54.741Z,79.20
2019-05-19T04:34:00.441Z,80.90
2019-05-19T04:38:06.133Z,80.80
2019-05-19T04:42:11.793Z,79.30
2019-05-19T04:46:17.531Z,79.00
2019-05-19T04:50:23.220Z,79.20
2019-05-19T04:54:28.881Z,79.70
2019-05-19T04:58:34.571Z,80.30
2019-05-19T05:02:40.241Z,79.00
2019-05-19T05:06:47.623Z,78.00
2019-05-19T05:10:53.678Z,77.80
2019-05-19T05:15:00.314Z,77.50
2019-05-19T05:19:06.008Z,77.60
2019-05-19T05:23:11.713Z,77.70
2019-05-19T05:27:17.405Z,77.30
2019-05-19T05:31:23.093Z,77.50
2019-05-19T05:35:28.776Z,76.80
2019-05-19T05:39:34.461Z,76.40
2019-05-19T05:43:40.155Z,76.80
2019-05-19T05:47:45.811Z,75.70
2019-05-19T05:51:51.878Z,76.20
2019-05-19T05:55:57.534Z,75.60
2019-05-19T06:00:03.764Z,74.80
2019-05-19T06:04:09.425Z,75.20
2019-05-19T06:08:15.340Z,74.20
2019-05-19T06:12:21.070Z,73.70
2019-05-19T06:16:27.014Z,72.90
2019-05-19T06:20:32.950Z,72.80
2019-05-19T06:24:38.632Z,73.00
2019-05-19T06:28:44.303Z,73.00
2019-05-19T06:32:51.944Z,72.50
2019-05-19T06:36:57.626Z,71.40
2019-05-19T06:41:03.387Z,72.20
2019-05-19T06:45:09.895Z,72.60
2019-05-19T06:49:15.584Z,73.10
2019-05-19T06:53:21.255Z,73.00
2019-05-19T06:57:26.975Z,72.70
2019-05-19T07:01:32.638Z,72.40
2019-05-19T07:05:39.311Z,71.20
2019-05-19T07:09:57.413Z,71.10
2019-05-19T07:13:52.392Z,68.90
2019-05-19T07:17:58.145Z,70.90
2019-05-19T07:22:04.409Z,71.40
2019-05-19T07:26:10.105Z,70.30
2019-05-19T07:30:16.388Z,68.60
2019-05-19T07:34:22.081Z,69.50
2019-05-19T07:38:27.782Z,68.50
2019-05-19T07:42:33.958Z,67.80
2019-05-19T07:46:39.689Z,67.10
2019-05-19T07:50:45.414Z,66.90
2019-05-19T07:54:51.106Z,66.40
2019-05-19T07:58:56.768Z,65.70
2019-05-19T08:03:02.476Z,64.90
2019-05-19T08:07:08.147Z,65.60
2019-05-19T08:11:14.109Z,66.50
2019-05-19T08:15:20.041Z,67.40
2019-05-19T08:19:25.710Z,67.20
2019-05-19T08:23:31.401Z,66.70
2019-05-19T08:27:37.105Z,66.00
2019-05-19T08:31:42.790Z,64.20
2019-05-19T08:35:48.484Z,62.20
2019-05-19T08:39:54.168Z,62.30
2019-05-19T08:43:59.848Z,61.30
2019-05-19T08:48:05.535Z,59.50
2019-05-19T08:52:11.201Z,59.10
2019-05-19T08:56:16.957Z,60.30
2019-05-19T09:00:22.710Z,59.10
2019-05-19T09:04:28.474Z,57.50
2019-05-19T09:08:34.190Z,55.70
2019-05-19T09:12:39.883Z,54.90
2019-05-19T09:16:56.111Z,54.20
2019-05-19T09:21:01.840Z,55.00
2019-05-19T09:25:08.830Z,55.10
2019-05-19T09:29:14.548Z,55.70
2019-05-19T09:33:20.430Z,57.10
2019-05-19T09:37:26.111Z,55.40
2019-05-19T09:41:31.807Z,55.20
2019-05-19T09:45:37.501Z,53.20
2019-05-19T09:49:43.197Z,54.40
2019-05-19T09:53:48.898Z,54.30
2019-05-19T09:57:54.575Z,52.60
2019-05-19T10:02:00.418Z,52.00
2019-05-19T10:06:06.156Z,52.60
2019-05-19T10:10:22.423Z,48.90
2019-05-19T10:14:28.151Z,48.10
2019-05-19T10:18:33.843Z,47.40
2019-05-19T10:22:39.670Z,47.50
2019-05-19T10:26:45.434Z,48.00
2019-05-19T10:30:51.196Z,48.80
2019-05-19T10:34:56.963Z,50.30
2019-05-19T10:39:02.703Z,50.90
2019-05-19T10:43:08.481Z,50.90
2019-05-19T10:47:14.191Z,51.10
2019-05-19T10:51:19.850Z,50.00
2019-05-19T10:55:36.182Z,48.90
2019-05-19T10:59:33.360Z,46.50
2019-05-19T11:03:40.114Z,44.00
2019-05-19T11:07:45.795Z,43.10
2019-05-19T11:11:51.522Z,43.10
2019-05-19T11:15:57.198Z,45.00
2019-05-19T11:20:02.983Z,43.90
2019-05-19T11:24:08.737Z,43.60
2019-05-19T11:28:15.407Z,41.10
2019-05-19T11:32:21.094Z,39.00
2019-05-19T11:36:27.929Z,40.10
2019-05-19T11:40:33.613Z,40.60
2019-05-19T11:44:39.316Z,39.40
2019-05-19T11:48:45.018Z,37.70
2019-05-19T11:52:50.704Z,36.60
2019-05-19T11:56:56.384Z,38.80
2019-05-19T12:01:02.167Z,40.70
2019-05-19T12:05:08.148Z,38.80
2019-05-19T12:09:13.839Z,40.10
2019-05-19T12:13:19.620Z,41.50
2019-05-19T12:17:25.324Z,42.30
2019-05-19T12:21:31.027Z,41.60
2019-05-19T12:25:37.675Z,41.70
2019-05-19T12:29:43.436Z,42.90
2019-05-19T12:33:51.983Z,42.30
2019-05-19T12:37:56.641Z,39.70
2019-05-19T12:42:03.348Z,37.30
2019-05-19T12:46:16.391Z,38.50
2019-05-19T12:50:17.756Z,39.50
2019-05-19T12:54:23.462Z,37.90
2019-05-19T12:58:29.127Z,38.90
2019-05-19T13:02:37.995Z,41.30
2019-05-19T13:06:42.353Z,40.80
2019-05-19T13:10:48.040Z,41.20
2019-05-19T13:14:53.728Z,41.80
2019-05-19T13:18:59.417Z,41.70
2019-05-19T13:23:05.105Z,40.00
2019-05-19T13:27:10.760Z,38.80
2019-05-19T13:31:16.464Z,39.80
2019-05-19T13:35:23.689Z,40.90
2019-05-19T13:39:29.367Z,42.80
2019-05-19T13:43:35.099Z,42.30
2019-05-19T13:47:40.808Z,41.50
2019-05-19T13:51:46.513Z,42.60
2019-05-19T13:55:52.213Z,44.00
2019-05-19T13:59:57.894Z,44.60
2019-05-19T14:04:03.576Z,43.30
2019-05-19T14:08:09.272Z,42.10
2019-05-19T14:12:14.966Z,42.00
2019-05-19T14:16:20.735Z,42.40
2019-05-19T14:20:26.414Z,43.20
2019-05-19T14:24:32.101Z,43.50
2019-05-19T14:28:37.812Z,44.50
2019-05-19T14:32:43.531Z,45.20
2019-05-19T14:36:49.229Z,45.50
2019-05-19T14:40:54.890Z,45.30
2019-05-19T14:45:00.596Z,44.70
2019-05-19T14:49:06.295Z,43.20
2019-05-19T14:53:12.000Z,42.90
2019-05-19T14:57:17.713Z,42.00
2019-05-19T15:01:23.426Z,41.40
2019-05-19T15:05:29.117Z,41.00
2019-05-19T15:09:34.810Z,41.90
2019-05-19T15:13:41.040Z,43.00
2019-05-19T15:17:46.736Z,43.70
2019-05-19T15:21:52.402Z,44.30
2019-05-19T15:25:58.090Z,43.80
2019-05-19T15:30:12.860Z,43.70
2019-05-19T15:34:13.371Z,43.90
2019-05-19T15:38:19.112Z,44.50
2019-05-19T15:42:25.828Z,44.60
2019-05-19T15:46:31.540Z,44.00
2019-05-19T15:50:37.212Z,43.70
2019-05-19T15:54:42.905Z,44.90
2019-05-19T15:58:49.145Z,46.20
2019-05-19T16:02:54.832Z,45.50
2019-05-19T16:07:00.809Z,45.20
2019-05-19T16:11:06.495Z,45.30
2019-05-19T16:15:13.310Z,45.50
2019-05-19T16:19:19.023Z,45.00
2019-05-19T16:23:24.783Z,45.70
2019-05-19T16:27:30.489Z,45.60
2019-05-19T16:31:36.175Z,46.60
2019-05-19T16:35:41.886Z,46.40
2019-05-19T16:39:47.569Z,49.50
2019-05-19T16:43:53.357Z,49.80
2019-05-19T16:47:59.120Z,52.90
2019-05-19T16:52:04.931Z,52.00
2019-05-19T16:56:10.592Z,53.70
2019-05-19T17:00:16.838Z,54.60
2019-05-19T17:04:22.590Z,55.20
2019-05-19T17:08:28.292Z,58.30
2019-05-19T17:12:33.987Z,57.40
2019-05-19T17:16:39.798Z,59.60
2019-05-19T17:20:45.547Z,60.80
2019-05-19T17:24:51.288Z,62.20
2019-05-19T17:29:00.620Z,60.40
2019-05-19T17:33:04.383Z,61.70
2019-05-19T17:37:10.088Z,61.90
2019-05-19T17:41:15.772Z,61.90
2019-05-19T17:45:22.308Z,63.80
2019-05-19T17:49:27.993Z,64.00
2019-05-19T17:53:34.196Z,67.40
2019-05-19T17:57:41.484Z,67.50
2019-05-19T18:01:47.230Z,69.40
2019-05-19T18:05:52.914Z,69.20
2019-05-19T18:09:58.601Z,71.20
2019-05-19T18:14:04.562Z,72.40
2019-05-19T18:18:10.265Z,68.90
2019-05-19T18:22:15.963Z,70.60
2019-05-19T18:26:21.687Z,73.10
2019-05-19T18:30:27.607Z,72.10
2019-05-19T18:34:33.512Z,72.90
2019-05-19T18:38:39.156Z,73.30
2019-05-19T18:42:44.894Z,72.50
2019-05-19T18:46:50.760Z,72.70
2019-05-19T18:50:56.438Z,74.20
2019-05-19T18:55:02.139Z,73.20
2019-05-19T18:59:07.819Z,74.00
2019-05-19T19:03:13.648Z,72.30
2019-05-19T19:07:19.350Z,71.20
2019-05-19T19:11:25.112Z,71.10
2019-05-19T19:15:30.957Z,70.50
2019-05-19T19:19:36.939Z,70.80
2019-05-19T19:23:42.706Z,70.70
2019-05-19T19:27:48.353Z,69.90
2019-05-19T19:31:54.058Z,69.70
2019-05-19T19:35:59.740Z,69.80
2019-05-19T19:40:08.039Z,69.10
2019-05-19T19:44:13.726Z,68.70
2019-05-19T19:48:19.426Z,69.00
2019-05-19T19:52:25.129Z,68.70
2019-05-19T19:56:30.860Z,68.30
2019-05-19T20:00:42.798Z,68.00
2019-05-19T20:04:48.476Z,68.90
2019-05-19T20:08:54.185Z,68.10
2019-05-19T20:12:59.993Z,68.40
2019-05-19T20:17:05.777Z,68.00
2019-05-19T20:21:12.274Z,68.70
2019-05-19T20:25:18.024Z,68.20
2019-05-19T20:29:24.450Z,68.60
2019-05-19T20:33:30.146Z,68.60
2019-05-19T20:37:35.900Z,68.70
2019-05-19T20:41:41.695Z,69.20
2019-05-19T20:45:47.390Z,69.90
2019-05-19T20:49:53.067Z,70.50
2019-05-19T20:53:58.776Z,71.60
2019-05-19T20:58:04.513Z,73.80
2019-05-19T21:02:10.208Z,74.10
2019-05-19T21:06:15.897Z,73.70
2019-05-19T21:10:23.219Z,73.70
2019-05-19T21:14:28.904Z,74.40
2019-05-19T21:18:34.588Z,82.60
2019-05-19T21:22:40.293Z,83.00
2019-05-19T21:26:45.981Z,87.00
2019-05-19T21:31:04.803Z,90.20
2019-05-19T21:35:00.000Z,90.60
2019-05-19T21:39:07.050Z,90.50
2019-05-19T21:43:12.751Z,92.20
2019-05-19T21:47:18.589Z,92.30
2019-05-19T21:51:24.270Z,92.60
2019-05-19T21:55:29.973Z,92.00
2019-05-19T21:59:35.651Z,92.30
2019-05-19T22:03:41.410Z,93.00
2019-05-19T22:07:52.836Z,95.10
2019-05-19T22:11:58.531Z,97.30
2019-05-19T22:16:13.077Z,99.90
2019-05-19T22:20:11.878Z,99.90
2019-05-19T22:24:19.320Z,99.90
2019-05-19T22:28:24.955Z,99.90
2019-05-19T22:32:30.626Z,99.90
2019-05-19T22:36:36.369Z,99.90
2019-05-19T22:40:42.050Z,99.90
2019-05-19T22:44:47.731Z,99.90
2019-05-19T22:48:53.416Z,99.90
2019-05-19T22:52:59.336Z,99.90
2019-05-19T22:57:05.043Z,99.90
2019-05-19T23:01:10.712Z,98.30
2019-05-19T23:05:16.904Z,93.70
2019-05-19T23:09:22.603Z,94.70
2019-05-19T23:13:28.298Z,96.60
2019-05-19T23:17:34.038Z,95.40
2019-05-19T23:21:39.727Z,93.70
2019-05-19T23:25:45.526Z,92.60
2019-05-19T23:29:51.239Z,96.60
2019-05-19T23:33:56.910Z,91.90
2019-05-19T23:38:02.589Z,93.60
2019-05-19T23:42:08.271Z,95.10
2019-05-19T23:46:14.021Z,90.80
2019-05-19T23:50:20.020Z,90.30
2019-05-19T23:54:25.746Z,87.40
2019-05-19T23:58:31.384Z,91.40
